createdAt,value
2023-03-17T00:00:11.287Z,5.55
2023-03-17T00:02:38.641Z,5.53
2023-03-17T00:05:15.985Z,5.54
2023-03-17T00:07:42.411Z,5.48
2023-03-17T00:10:16.464Z,5.49
2023-03-17T00:12:43.136Z,5.55
2023-03-17T00:15:10.062Z,5.57
2023-03-17T00:17:36.469Z,5.54
2023-03-17T00:20:02.956Z,5.55
2023-03-17T00:22:29.350Z,5.58
2023-03-17T00:24:55.764Z,5.54
2023-03-17T00:27:22.206Z,5.51
2023-03-17T00:29:48.637Z,5.51
2023-03-17T00:32:16.908Z,5.49
2023-03-17T00:34:43.605Z,5.47
2023-03-17T00:37:12.928Z,5.46
2023-03-17T00:39:39.649Z,5.42
2023-03-17T00:42:06.764Z,5.39
2023-03-17T00:44:34.035Z,5.36
2023-03-17T00:47:00.589Z,5.33
2023-03-17T00:49:27.014Z,5.34
2023-03-17T00:51:53.466Z,5.30
2023-03-17T00:54:20.229Z,5.29
2023-03-17T00:56:46.952Z,5.30
2023-03-17T00:59:36.462Z,5.27
2023-03-17T01:02:02.936Z,5.22
2023-03-17T01:04:29.403Z,5.18
2023-03-17T01:06:55.810Z,5.13
2023-03-17T01:09:24.054Z,5.07
2023-03-17T01:11:50.490Z,5.03
2023-03-17T01:14:17.036Z,5.02
2023-03-17T01:16:43.562Z,4.99
2023-03-17T01:19:11.826Z,5.01
2023-03-17T01:21:38.273Z,4.96
2023-03-17T01:24:05.293Z,4.92
2023-03-17T01:26:31.781Z,4.90
2023-03-17T01:28:58.206Z,4.89
2023-03-17T01:31:24.751Z,4.88
2023-03-17T01:33:51.254Z,4.88
2023-03-17T01:36:17.749Z,4.87
2023-03-17T01:38:44.222Z,4.86
2023-03-17T01:41:10.644Z,4.88
2023-03-17T01:43:37.025Z,4.90
2023-03-17T01:46:21.609Z,4.89
2023-03-17T01:49:20.905Z,4.88
2023-03-17T01:51:53.064Z,4.86
2023-03-17T01:54:33.369Z,4.82
2023-03-17T01:57:03.446Z,4.83
2023-03-17T01:59:33.381Z,4.82
2023-03-17T02:02:03.239Z,4.84
2023-03-17T02:04:29.558Z,4.84
2023-03-17T02:06:58.374Z,4.82
2023-03-17T02:09:26.143Z,4.85
2023-03-17T02:11:52.578Z,4.84
2023-03-17T02:14:19.009Z,4.89
2023-03-17T02:16:45.504Z,4.86
2023-03-17T02:19:11.992Z,4.85
2023-03-17T02:21:42.798Z,4.86
2023-03-17T02:24:15.577Z,4.89
2023-03-17T02:26:42.001Z,4.90
2023-03-17T02:29:08.409Z,4.88
2023-03-17T02:31:34.833Z,4.86
2023-03-17T02:34:01.294Z,4.83
2023-03-17T02:36:27.719Z,4.85
2023-03-17T02:38:54.156Z,4.88
2023-03-17T02:41:20.589Z,4.87
2023-03-17T02:43:46.983Z,4.90
2023-03-17T02:46:13.470Z,4.91
2023-03-17T02:48:39.901Z,4.86
2023-03-17T02:51:06.495Z,4.87
2023-03-17T02:53:32.884Z,4.87
2023-03-17T02:55:59.319Z,4.84
2023-03-17T02:58:25.738Z,4.83
2023-03-17T03:00:52.160Z,4.82
2023-03-17T03:03:18.604Z,4.81
2023-03-17T03:05:45.063Z,4.81
2023-03-17T03:08:11.451Z,4.84
2023-03-17T03:10:37.903Z,4.82
2023-03-17T03:13:04.333Z,4.84
2023-03-17T03:15:30.831Z,4.83
2023-03-17T03:17:57.275Z,4.82
2023-03-17T03:20:23.707Z,4.84
2023-03-17T03:22:50.135Z,4.83
2023-03-17T03:25:16.639Z,4.84
2023-03-17T03:27:43.038Z,4.84
2023-03-17T03:30:10.169Z,4.83
2023-03-17T03:32:36.680Z,4.81
2023-03-17T03:35:03.155Z,4.83
2023-03-17T03:37:29.711Z,4.82
2023-03-17T03:39:56.161Z,4.76
2023-03-17T03:42:22.590Z,4.72
2023-03-17T03:44:49.033Z,4.71
2023-03-17T03:47:15.505Z,4.67
2023-03-17T03:49:41.961Z,4.65
2023-03-17T03:52:08.377Z,4.64
2023-03-17T03:54:34.864Z,4.62
2023-03-17T03:57:01.318Z,4.59
2023-03-17T03:59:27.699Z,4.54
2023-03-17T04:01:54.113Z,4.48
2023-03-17T04:04:20.585Z,4.42
2023-03-17T04:06:47.025Z,4.41
2023-03-17T04:09:13.431Z,4.38
2023-03-17T04:11:39.887Z,4.36
2023-03-17T04:14:06.286Z,4.35
2023-03-17T04:16:32.759Z,4.38
2023-03-17T04:18:59.252Z,4.37
2023-03-17T04:21:25.726Z,4.34
2023-03-17T04:23:52.129Z,4.32
2023-03-17T04:26:18.614Z,4.26
2023-03-17T04:28:45.115Z,4.25
2023-03-17T04:31:11.883Z,4.23
2023-03-17T04:33:38.314Z,4.19
2023-03-17T04:36:04.983Z,4.16
2023-03-17T04:38:31.566Z,4.16
2023-03-17T04:40:57.945Z,4.20
2023-03-17T04:43:24.538Z,4.19
2023-03-17T04:45:51.048Z,4.19
2023-03-17T04:48:17.511Z,4.23
2023-03-17T04:50:43.957Z,4.21
2023-03-17T04:53:10.540Z,4.21
2023-03-17T04:55:37.058Z,4.19
2023-03-17T04:58:03.624Z,4.26
2023-03-17T05:00:30.238Z,4.20
2023-03-17T05:02:56.842Z,4.14
2023-03-17T05:05:23.264Z,4.10
2023-03-17T05:07:49.711Z,4.06
2023-03-17T05:10:16.253Z,4.07
2023-03-17T05:12:42.664Z,4.04
2023-03-17T05:15:09.294Z,3.98
2023-03-17T05:17:35.697Z,3.96
2023-03-17T05:20:02.171Z,3.94
2023-03-17T05:22:28.631Z,3.93
2023-03-17T05:24:55.079Z,3.90
2023-03-17T05:27:21.525Z,3.90
2023-03-17T05:29:47.959Z,3.90
2023-03-17T05:32:14.469Z,3.88
2023-03-17T05:34:40.945Z,3.89
2023-03-17T05:37:07.377Z,3.88
2023-03-17T05:39:33.922Z,3.89
2023-03-17T05:42:00.335Z,3.88
2023-03-17T05:44:26.751Z,3.87
2023-03-17T05:46:53.242Z,3.83
2023-03-17T05:49:19.738Z,3.92
2023-03-17T05:51:47.210Z,3.94
2023-03-17T05:54:13.739Z,3.96
2023-03-17T05:56:40.178Z,4.02
2023-03-17T05:59:06.618Z,4.03
2023-03-17T06:01:33.052Z,4.08
2023-03-17T06:03:59.468Z,4.10
2023-03-17T06:06:25.951Z,4.12
2023-03-17T06:08:52.396Z,4.16
2023-03-17T06:11:19.224Z,4.23
2023-03-17T06:13:45.639Z,4.30
2023-03-17T06:16:12.074Z,4.34
2023-03-17T06:18:38.662Z,4.36
2023-03-17T06:21:05.310Z,4.37
2023-03-17T06:23:31.870Z,4.36
2023-03-17T06:25:58.269Z,4.38
2023-03-17T06:28:24.667Z,4.42
2023-03-17T06:30:51.148Z,4.44
2023-03-17T06:33:17.631Z,4.43
2023-03-17T06:35:44.118Z,4.48
2023-03-17T06:38:10.558Z,4.55
2023-03-17T06:40:37.032Z,4.61
2023-03-17T06:43:03.444Z,4.64
2023-03-17T06:45:30.184Z,4.67
2023-03-17T06:47:56.817Z,4.74
2023-03-17T06:50:23.225Z,4.82
2023-03-17T06:52:49.650Z,4.88
2023-03-17T06:55:16.196Z,4.99
2023-03-17T06:57:42.637Z,5.06
2023-03-17T07:00:09.662Z,5.11
2023-03-17T07:02:36.118Z,5.22
2023-03-17T07:05:02.606Z,5.29
2023-03-17T07:07:29.038Z,5.41
2023-03-17T07:09:55.416Z,5.50
2023-03-17T07:12:21.948Z,5.59
2023-03-17T07:14:48.409Z,5.67
2023-03-17T07:17:14.944Z,5.75
2023-03-17T07:19:41.399Z,5.76
2023-03-17T07:22:09.236Z,5.79
2023-03-17T07:24:35.646Z,5.79
2023-03-17T07:27:02.061Z,5.80
2023-03-17T07:29:28.542Z,5.85
2023-03-17T07:31:54.971Z,5.95
2023-03-17T07:34:21.477Z,6.02
2023-03-17T07:36:47.900Z,6.11
2023-03-17T07:39:14.344Z,6.22
2023-03-17T07:41:40.758Z,6.32
2023-03-17T07:44:07.187Z,6.37
2023-03-17T07:46:33.658Z,6.42
2023-03-17T07:49:00.056Z,6.54
2023-03-17T07:51:26.486Z,6.54
2023-03-17T07:53:53.085Z,6.57
2023-03-17T07:56:19.551Z,6.59
2023-03-17T07:58:45.960Z,6.64
2023-03-17T08:01:12.469Z,6.70
2023-03-17T08:03:41.268Z,6.78
2023-03-17T08:06:08.192Z,6.92
2023-03-17T08:08:34.595Z,7.04
2023-03-17T08:11:02.186Z,7.27
2023-03-17T08:13:33.137Z,7.46
2023-03-17T08:15:59.775Z,7.60
2023-03-17T08:18:26.250Z,7.70
2023-03-17T08:20:52.686Z,7.67
2023-03-17T08:23:19.542Z,7.67
2023-03-17T08:25:46.036Z,7.79
2023-03-17T08:28:12.479Z,7.90
2023-03-17T08:30:39.377Z,8.05
2023-03-17T08:33:06.205Z,8.10
2023-03-17T08:35:33.073Z,8.20
2023-03-17T08:37:59.660Z,8.31
2023-03-17T08:40:26.099Z,8.45
2023-03-17T08:42:52.550Z,8.50
2023-03-17T08:45:19.112Z,8.54
2023-03-17T08:47:45.964Z,8.62
2023-03-17T08:50:16.497Z,8.81
2023-03-17T08:52:42.937Z,9.07
2023-03-17T08:55:09.380Z,9.21
2023-03-17T08:57:36.104Z,9.40
2023-03-17T09:00:02.933Z,9.62
2023-03-17T09:02:29.384Z,9.88
2023-03-17T09:04:55.774Z,10.12
2023-03-17T09:07:22.194Z,10.27
2023-03-17T09:09:48.574Z,10.45
2023-03-17T09:12:15.032Z,10.59
2023-03-17T09:14:44.422Z,10.67
2023-03-17T09:17:12.310Z,10.60
2023-03-17T09:19:38.749Z,10.66
2023-03-17T09:22:05.242Z,10.66
2023-03-17T09:24:31.668Z,10.74
2023-03-17T09:26:58.044Z,10.88
2023-03-17T09:29:24.480Z,11.07
2023-03-17T09:31:50.911Z,11.21
2023-03-17T09:34:17.324Z,11.35
2023-03-17T09:36:43.780Z,11.54
2023-03-17T09:39:10.190Z,11.79
2023-03-17T09:41:59.803Z,11.94
2023-03-17T09:44:29.140Z,11.87
2023-03-17T09:47:01.983Z,11.76
2023-03-17T09:49:47.862Z,11.60
2023-03-17T09:52:18.884Z,11.53
2023-03-17T09:54:45.610Z,11.42
2023-03-17T09:57:27.178Z,11.44
2023-03-17T10:00:14.412Z,11.63
2023-03-17T10:02:41.074Z,11.75
2023-03-17T10:05:16.485Z,11.84
2023-03-17T10:07:54.847Z,11.99
2023-03-17T10:10:36.899Z,12.21
2023-03-17T10:13:07.075Z,12.37
2023-03-17T10:16:00.922Z,12.41
2023-03-17T10:18:29.778Z,12.40
2023-03-17T10:21:01.863Z,12.43
2023-03-17T10:23:30.515Z,12.53
2023-03-17T10:25:57.815Z,12.59
2023-03-17T10:28:31.732Z,12.74
2023-03-17T10:31:19.227Z,12.87
2023-03-17T10:33:50.374Z,12.95
2023-03-17T10:36:17.207Z,13.00
2023-03-17T10:38:52.824Z,13.03
2023-03-17T10:41:19.239Z,13.01
2023-03-17T10:43:47.417Z,13.05
2023-03-17T10:46:22.026Z,13.08
2023-03-17T10:48:53.910Z,13.02
2023-03-17T10:51:31.016Z,12.98
2023-03-17T10:54:00.310Z,12.93
2023-03-17T10:56:27.483Z,12.90
2023-03-17T10:58:54.262Z,12.94
2023-03-17T11:01:20.618Z,12.95
2023-03-17T11:03:47.440Z,12.94
2023-03-17T11:06:15.538Z,12.90
2023-03-17T11:08:51.839Z,12.90
2023-03-17T11:11:28.081Z,12.97
2023-03-17T11:14:05.306Z,12.99
2023-03-17T11:16:35.195Z,13.03
2023-03-17T11:19:01.688Z,13.06
2023-03-17T11:21:32.550Z,13.15
2023-03-17T11:24:04.924Z,13.28
2023-03-17T11:26:59.987Z,13.43
2023-03-17T11:29:26.273Z,13.55
2023-03-17T11:32:23.683Z,13.69
2023-03-17T11:35:12.014Z,13.80
2023-03-17T11:37:38.312Z,13.82
2023-03-17T11:40:29.437Z,13.91
2023-03-17T11:43:08.586Z,14.03
2023-03-17T11:45:50.147Z,14.19
2023-03-17T11:48:38.522Z,14.28
2023-03-17T11:51:52.490Z,14.51
2023-03-17T11:54:31.985Z,14.66
2023-03-17T11:56:58.871Z,14.78
2023-03-17T11:59:43.517Z,14.96
2023-03-17T12:02:35.816Z,15.07
2023-03-17T12:05:32.076Z,15.18
2023-03-17T12:08:00.597Z,15.24
2023-03-17T12:10:40.776Z,15.37
2023-03-17T12:13:16.931Z,15.37
2023-03-17T12:15:57.123Z,15.42
2023-03-17T12:18:26.490Z,15.60
2023-03-17T12:21:11.265Z,15.75
2023-03-17T12:24:09.985Z,15.80
2023-03-17T12:26:40.366Z,15.94
2023-03-17T12:29:13.450Z,16.10
2023-03-17T12:31:46.148Z,16.33
2023-03-17T12:34:25.918Z,16.49
2023-03-17T12:36:52.471Z,16.64
2023-03-17T12:39:25.564Z,16.76
2023-03-17T12:42:07.253Z,16.84
2023-03-17T12:45:05.719Z,16.98
2023-03-17T12:47:38.417Z,17.12
2023-03-17T12:50:14.532Z,17.21
2023-03-17T12:52:53.128Z,17.40
2023-03-17T12:55:20.329Z,17.61
2023-03-17T12:57:47.862Z,17.77
2023-03-17T13:00:37.128Z,17.97
2023-03-17T13:03:27.399Z,18.16
2023-03-17T13:06:01.377Z,18.32
2023-03-17T13:08:31.827Z,18.36
2023-03-17T13:11:33.290Z,18.52
2023-03-17T13:14:23.802Z,18.73
2023-03-17T13:16:50.227Z,18.89
2023-03-17T13:19:23.744Z,18.99
2023-03-17T13:21:59.953Z,19.10
2023-03-17T13:24:45.907Z,19.28
2023-03-17T13:27:35.020Z,19.92
2023-03-17T13:30:23.003Z,20.86
2023-03-17T13:32:56.255Z,22.13
2023-03-17T13:35:37.463Z,23.11
2023-03-17T13:38:22.131Z,24.28
2023-03-17T13:41:19.561Z,25.61
2023-03-17T13:43:58.161Z,26.59
2023-03-17T13:46:36.769Z,27.78
2023-03-17T13:49:20.754Z,28.85
2023-03-17T13:52:03.873Z,29.63
2023-03-17T13:54:32.718Z,28.13
2023-03-17T13:57:21.351Z,28.61
2023-03-17T13:59:50.769Z,28.32
2023-03-17T14:02:17.576Z,27.19
2023-03-17T14:04:50.916Z,27.47
2023-03-17T14:07:19.376Z,27.20
2023-03-17T14:09:45.789Z,26.47
2023-03-17T14:12:42.536Z,25.39
2023-03-17T14:15:13.808Z,24.69
2023-03-17T14:17:55.784Z,24.26
2023-03-17T14:20:26.135Z,22.99
2023-03-17T14:22:54.936Z,22.18
2023-03-17T14:25:26.055Z,21.21
2023-03-17T14:27:54.128Z,22.11
2023-03-17T14:30:28.338Z,23.19
2023-03-17T14:33:01.953Z,24.00
2023-03-17T14:35:33.210Z,23.32
2023-03-17T14:38:00.432Z,22.78
2023-03-17T14:40:28.509Z,22.18
2023-03-17T14:42:54.922Z,21.78
2023-03-17T14:45:29.838Z,21.18
2023-03-17T14:47:56.568Z,20.72
2023-03-17T14:50:26.304Z,20.57
2023-03-17T14:52:52.766Z,20.25
2023-03-17T14:55:19.192Z,20.04
2023-03-17T14:57:50.285Z,19.54
2023-03-17T15:00:53.616Z,19.05
2023-03-17T15:03:21.212Z,18.38
2023-03-17T15:05:47.837Z,17.83
2023-03-17T15:08:30.173Z,17.35
2023-03-17T15:11:00.114Z,17.05
2023-03-17T15:13:27.283Z,16.85
2023-03-17T15:15:53.740Z,16.66
2023-03-17T15:18:20.199Z,16.48
2023-03-17T15:20:46.703Z,16.34
2023-03-17T15:23:20.682Z,16.21
2023-03-17T15:25:48.328Z,16.10
2023-03-17T15:28:16.226Z,15.97
2023-03-17T15:30:47.562Z,15.84
2023-03-17T15:33:23.337Z,15.74
2023-03-17T15:35:50.214Z,15.66
2023-03-17T15:38:16.701Z,15.58
2023-03-17T15:40:43.180Z,15.49
2023-03-17T15:43:14.073Z,15.39
2023-03-17T15:45:40.630Z,15.32
2023-03-17T15:48:15.251Z,15.27
2023-03-17T15:50:41.724Z,15.24
2023-03-17T15:53:11.360Z,15.28
2023-03-17T15:55:37.798Z,15.29
2023-03-17T15:58:04.216Z,15.40
2023-03-17T16:00:30.832Z,15.45
2023-03-17T16:02:59.611Z,15.47
2023-03-17T16:05:35.460Z,15.53
2023-03-17T16:08:01.897Z,15.56
2023-03-17T16:10:29.937Z,15.56
2023-03-17T16:12:56.487Z,15.54
2023-03-17T16:15:24.305Z,15.43
2023-03-17T16:17:54.792Z,15.31
2023-03-17T16:20:30.359Z,15.26
2023-03-17T16:23:05.410Z,15.17
2023-03-17T16:25:32.091Z,15.09
2023-03-17T16:27:59.843Z,14.98
2023-03-17T16:30:31.181Z,14.88
2023-03-17T16:33:00.058Z,14.80
2023-03-17T16:35:26.524Z,14.72
2023-03-17T16:37:53.019Z,14.65
2023-03-17T16:40:20.207Z,14.55
2023-03-17T16:42:46.765Z,14.47
2023-03-17T16:45:27.663Z,14.41
2023-03-17T16:47:54.969Z,14.36
2023-03-17T16:50:22.832Z,14.36
2023-03-17T16:52:49.248Z,14.32
2023-03-17T16:55:15.836Z,14.26
2023-03-17T16:57:42.758Z,14.20
2023-03-17T17:00:11.598Z,14.08
2023-03-17T17:02:38.066Z,13.99
2023-03-17T17:05:12.575Z,13.90
2023-03-17T17:07:39.004Z,13.81
2023-03-17T17:10:05.581Z,13.77
2023-03-17T17:12:32.025Z,13.72
2023-03-17T17:14:58.427Z,13.67
2023-03-17T17:17:24.843Z,13.59
2023-03-17T17:19:51.266Z,13.61
2023-03-17T17:22:17.688Z,13.57
2023-03-17T17:24:44.092Z,13.51
2023-03-17T17:27:10.514Z,13.42
2023-03-17T17:29:36.911Z,13.34
2023-03-17T17:32:03.400Z,13.25
2023-03-17T17:34:29.796Z,13.13
2023-03-17T17:36:56.197Z,13.11
2023-03-17T17:39:22.624Z,13.07
2023-03-17T17:41:49.022Z,13.02
2023-03-17T17:44:15.465Z,12.97
2023-03-17T17:46:41.970Z,12.95
2023-03-17T17:49:08.389Z,12.94
2023-03-17T17:51:34.842Z,12.95
2023-03-17T17:54:01.282Z,12.92
2023-03-17T17:56:27.697Z,12.86
2023-03-17T17:58:54.152Z,12.79
2023-03-17T18:01:20.904Z,12.74
2023-03-17T18:03:47.448Z,12.68
2023-03-17T18:06:13.854Z,12.61
2023-03-17T18:08:40.332Z,12.54
2023-03-17T18:11:06.749Z,12.48
2023-03-17T18:13:33.229Z,12.43
2023-03-17T18:15:59.695Z,12.41
2023-03-17T18:18:26.156Z,12.40
2023-03-17T18:20:52.611Z,12.39
2023-03-17T18:23:19.048Z,12.39
2023-03-17T18:25:45.433Z,12.40
2023-03-17T18:28:11.917Z,12.41
2023-03-17T18:30:38.390Z,12.38
2023-03-17T18:33:12.795Z,12.37
2023-03-17T18:35:39.226Z,12.35
2023-03-17T18:38:05.626Z,12.34
2023-03-17T18:40:32.060Z,12.30
2023-03-17T18:42:58.444Z,12.25
2023-03-17T18:45:26.177Z,12.24
2023-03-17T18:47:52.603Z,12.20
2023-03-17T18:50:19.300Z,12.14
2023-03-17T18:52:45.720Z,12.12
2023-03-17T18:55:12.827Z,12.12
2023-03-17T18:57:39.374Z,12.13
2023-03-17T19:00:08.421Z,12.17
2023-03-17T19:02:35.361Z,12.21
2023-03-17T19:05:01.834Z,12.20
2023-03-17T19:07:28.267Z,12.17
2023-03-17T19:09:54.793Z,12.12
2023-03-17T19:12:21.236Z,12.10
2023-03-17T19:14:47.677Z,12.06
2023-03-17T19:17:14.081Z,11.98
2023-03-17T19:19:40.528Z,11.98
2023-03-17T19:22:06.946Z,12.02
2023-03-17T19:24:36.211Z,12.04
2023-03-17T19:27:02.670Z,12.02
2023-03-17T19:29:29.103Z,11.97
2023-03-17T19:31:55.664Z,11.96
2023-03-17T19:34:22.070Z,11.94
2023-03-17T19:36:48.636Z,11.92
2023-03-17T19:39:15.101Z,11.90
2023-03-17T19:41:41.525Z,11.87
2023-03-17T19:44:08.133Z,11.84
2023-03-17T19:46:36.915Z,11.81
2023-03-17T19:49:03.785Z,11.78
2023-03-17T19:51:30.252Z,11.77
2023-03-17T19:53:56.642Z,11.77
2023-03-17T19:56:23.182Z,11.76
2023-03-17T19:58:49.693Z,11.79
2023-03-17T20:01:16.181Z,11.84
2023-03-17T20:03:42.648Z,11.80
2023-03-17T20:06:10.208Z,11.76
2023-03-17T20:08:36.805Z,11.65
2023-03-17T20:11:03.320Z,11.58
2023-03-17T20:13:29.731Z,11.50
2023-03-17T20:15:56.205Z,11.45
2023-03-17T20:18:22.788Z,11.40
2023-03-17T20:20:52.153Z,11.34
2023-03-17T20:23:18.716Z,11.31
2023-03-17T20:25:45.193Z,11.29
2023-03-17T20:28:12.018Z,11.29
2023-03-17T20:30:38.867Z,11.28
2023-03-17T20:33:05.976Z,11.28
2023-03-17T20:35:32.940Z,11.24
2023-03-17T20:37:59.405Z,11.22
2023-03-17T20:40:25.830Z,11.19
2023-03-17T20:42:52.334Z,11.15
2023-03-17T20:45:18.941Z,11.12
2023-03-17T20:47:45.773Z,11.09
2023-03-17T20:50:12.183Z,11.04
2023-03-17T20:52:38.686Z,10.99
2023-03-17T20:55:05.995Z,10.99
2023-03-17T20:57:33.247Z,11.03
2023-03-17T20:59:59.672Z,11.04
2023-03-17T21:02:26.148Z,11.06
2023-03-17T21:04:52.564Z,11.09
2023-03-17T21:07:19.723Z,11.11
2023-03-17T21:09:46.191Z,11.10
2023-03-17T21:12:19.674Z,11.09
2023-03-17T21:14:46.752Z,11.08
2023-03-17T21:17:13.253Z,11.04
2023-03-17T21:19:39.742Z,11.02
2023-03-17T21:22:06.232Z,11.02
2023-03-17T21:24:34.030Z,11.01
2023-03-17T21:27:01.824Z,11.01
2023-03-17T21:29:28.480Z,11.01
2023-03-17T21:31:54.993Z,11.01
2023-03-17T21:34:21.465Z,11.03
2023-03-17T21:36:47.873Z,11.04
2023-03-17T21:39:14.344Z,11.05
2023-03-17T21:41:40.757Z,11.03
2023-03-17T21:44:07.233Z,11.01
2023-03-17T21:46:33.833Z,10.97
2023-03-17T21:49:00.458Z,10.92
2023-03-17T21:51:26.887Z,10.89
2023-03-17T21:53:53.417Z,10.88
2023-03-17T21:56:20.222Z,10.85
2023-03-17T21:58:46.673Z,10.86
2023-03-17T22:01:13.113Z,10.85
2023-03-17T22:03:39.616Z,10.86
2023-03-17T22:06:06.489Z,10.86
2023-03-17T22:08:32.934Z,10.87
2023-03-17T22:10:59.356Z,10.84
2023-03-17T22:13:25.773Z,10.85
2023-03-17T22:15:52.199Z,10.85
2023-03-17T22:18:18.602Z,10.81
2023-03-17T22:20:45.027Z,10.79
2023-03-17T22:23:11.479Z,10.78
2023-03-17T22:25:37.967Z,10.76
2023-03-17T22:28:04.404Z,10.75
2023-03-17T22:30:31.078Z,10.76
2023-03-17T22:32:57.780Z,10.74
2023-03-17T22:35:24.275Z,10.72
2023-03-17T22:37:50.687Z,10.71
2023-03-17T22:40:18.469Z,10.67
2023-03-17T22:42:44.905Z,10.64
2023-03-17T22:45:13.187Z,10.60
2023-03-17T22:47:39.714Z,10.55
2023-03-17T22:50:06.367Z,10.54
2023-03-17T22:52:32.795Z,10.53
2023-03-17T22:54:59.242Z,10.53
2023-03-17T22:57:25.643Z,10.52
2023-03-17T22:59:52.101Z,10.51
2023-03-17T23:02:18.648Z,10.50
2023-03-17T23:04:45.142Z,10.51
2023-03-17T23:07:11.549Z,10.49
2023-03-17T23:09:37.958Z,10.46
2023-03-17T23:12:04.570Z,10.45
2023-03-17T23:14:30.998Z,10.46
2023-03-17T23:16:57.452Z,10.48
2023-03-17T23:19:23.925Z,10.47
2023-03-17T23:21:50.449Z,10.45
2023-03-17T23:24:16.902Z,10.46
2023-03-17T23:26:43.328Z,10.43
2023-03-17T23:29:09.769Z,10.38
2023-03-17T23:31:36.310Z,10.37
2023-03-17T23:34:03.676Z,10.40
2023-03-17T23:36:30.122Z,10.38
2023-03-17T23:38:56.546Z,10.37
2023-03-17T23:41:23.000Z,10.36
2023-03-17T23:43:49.454Z,10.36
2023-03-17T23:46:15.931Z,10.37
2023-03-17T23:48:42.807Z,10.38
2023-03-17T23:51:09.390Z,10.37
2023-03-17T23:53:35.803Z,10.35
2023-03-17T23:56:02.428Z,10.33
2023-03-17T23:58:28.830Z,10.33
